Jicin, Czech Republic
Current Conditions -  °F | °C
As of 3:00 AM on Tuesday 23 Dec 2014 (Local Time) from LKPD Reporting Station
Overcast Overcast  
Wind Chill: 41°   Ceiling: 2700
Heat Index: 48°   Visibility: 6mi
Dew Point: 41°   Wind: 22mph
Humidity: 76%   Direction: 260°W
Pressure: 30"   Gusts: NA
Location:  50.44°N, 15.35°E
Report Text: LKPD 230100Z 26019KT 9999 OVC027 09/05 Q1016
Loading
Personal Weather Stations






























Interactive Weather Map New forecast layout! Learn more

10-Day Weather Forecast

Advertisements
Track Severe Weather on mobile